Boston, Massachusetts
Traffic Map
Current Weather Conditions
Boston, Massachusetts
Few Clouds
Few Clouds

Feels Like: -2°
Wind Chill: -2° Ceiling: Unl
Heat Index: Visibility: 10mi
Dew Point: -10° Wind: 21mph
Humidity: 36% Direction: 280° (W)
Pressure: 29.89in Gusts: 36mph
Raw Report DataKBOS 201554Z 28018G31KT 10SM FEW035 FEW065 04/M10 A2989 RMK AO2 PK WND 28033/1535 SLP120 T00391100
Traffic Incident Summary
Active as of:
Severity:
Category:
InformationThere was an issue retrieving the traffic information for this location. Please try a different location or try again shortly.
Advertisements